Time;durP1;ratioP1;P1;durP2;ratioP2;P2;SDS_P1;SDS_P2;PMS_P1;PMS_P2;Temp;Humidity;BMP_temperature;BMP_pressure;BME280_temperature;BME280_humidity;BME280_pressure;Samples;Min_cycle;Max_cycle;Signal;HPM_P1;HPM_P2
2023/12/19 00:00:35;;;;;;;39.20;14.10;;;;;;;;;;5018581;28;20425;-65
2023/12/19 00:03:00;;;;;;;42.97;16.27;;;;;;;;;;5019530;28;20045;-65
2023/12/19 00:05:25;;;;;;;43.17;15.17;;;;;;;;;;5018133;28;20057;-65
2023/12/19 00:07:51;;;;;;;47.67;16.10;;;;;;;;;;5018050;28;20025;-65
2023/12/19 00:10:16;;;;;;;37.40;13.57;;;;;;;;;;5015055;28;20113;-64
2023/12/19 00:12:41;;;;;;;35.37;13.53;;;;;;;;;;5015002;28;20025;-64
2023/12/19 00:15:07;;;;;;;46.10;16.57;;;;;;;;;;5016864;28;20060;-64
2023/12/19 00:17:32;;;;;;;33.87;12.33;;;;;;;;;;5018672;28;20054;-66
2023/12/19 00:19:58;;;;;;;32.97;12.63;;;;;;;;;;5014335;28;20025;-65
2023/12/19 00:22:23;;;;;;;35.90;14.03;;;;;;;;;;5016869;28;20385;-64
2023/12/19 00:24:49;;;;;;;41.83;14.13;;;;;;;;;;5013685;28;20071;-64
2023/12/19 00:27:14;;;;;;;46.60;17.10;;;;;;;;;;5012511;28;20068;-64
2023/12/19 00:29:40;;;;;;;42.83;16.77;;;;;;;;;;5013132;28;20072;-65
2023/12/19 00:32:05;;;;;;;40.07;14.67;;;;;;;;;;5013984;28;20091;-64
2023/12/19 00:34:30;;;;;;;49.83;17.80;;;;;;;;;;5016294;28;20036;-65
2023/12/19 00:36:55;;;;;;;46.50;17.27;;;;;;;;;;5016519;28;20443;-65
2023/12/19 00:39:21;;;;;;;48.13;15.43;;;;;;;;;;5013215;28;20688;-65
2023/12/19 00:41:46;;;;;;;43.87;15.67;;;;;;;;;;5012365;28;20485;-65
2023/12/19 00:44:12;;;;;;;37.87;14.93;;;;;;;;;;5018209;28;20021;-67
2023/12/19 00:46:37;;;;;;;38.40;14.57;;;;;;;;;;5015340;28;20052;-65
2023/12/19 00:49:02;;;;;;;44.67;15.47;;;;;;;;;;5012370;28;20021;-64
2023/12/19 00:51:28;;;;;;;43.97;16.37;;;;;;;;;;5017005;28;20025;-64
2023/12/19 00:53:53;;;;;;;41.63;14.83;;;;;;;;;;5014592;28;20030;-64
2023/12/19 00:56:18;;;;;;;39.27;14.73;;;;;;;;;;5018159;28;20033;-63
2023/12/19 00:58:44;;;;;;;36.77;14.43;;;;;;;;;;5011590;28;20466;-64
2023/12/19 01:01:09;;;;;;;34.33;14.20;;;;;;;;;;5010893;28;20024;-65
2023/12/19 01:03:35;;;;;;;38.47;15.20;;;;;;;;;;5021747;28;20430;-63
2023/12/19 01:06:02;;;;;;;39.07;15.30;;;;;;;;;;5012177;28;20025;-64
2023/12/19 01:08:27;;;;;;;42.10;14.93;;;;;;;;;;5015510;28;20707;-64
2023/12/19 01:10:53;;;;;;;41.10;16.70;;;;;;;;;;5013266;28;20037;-63
2023/12/19 01:13:18;;;;;;;33.40;12.83;;;;;;;;;;5017105;28;20040;-64
2023/12/19 01:15:44;;;;;;;37.63;14.00;;;;;;;;;;5015815;28;20405;-64
2023/12/19 01:18:09;;;;;;;39.80;14.80;;;;;;;;;;5016532;28;20210;-63
2023/12/19 01:20:35;;;;;;;32.10;12.33;;;;;;;;;;5011958;28;20163;-64
2023/12/19 01:23:00;;;;;;;35.53;14.67;;;;;;;;;;5015804;28;20371;-63
2023/12/19 01:25:25;;;;;;;38.47;15.17;;;;;;;;;;5017270;28;20024;-63
2023/12/19 01:27:50;;;;;;;44.07;15.23;;;;;;;;;;5014379;28;20021;-63
2023/12/19 01:30:16;;;;;;;35.73;14.10;;;;;;;;;;5012274;28;20099;-63
2023/12/19 01:32:41;;;;;;;41.87;15.50;;;;;;;;;;5018760;28;20029;-63
2023/12/19 01:35:06;;;;;;;40.87;14.33;;;;;;;;;;5012480;28;20046;-64
2023/12/19 01:37:32;;;;;;;31.83;12.77;;;;;;;;;;5017008;28;20033;-65
2023/12/19 01:39:57;;;;;;;39.03;14.23;;;;;;;;;;5013087;28;20033;-63
2023/12/19 01:42:23;;;;;;;38.53;14.30;;;;;;;;;;5012906;28;20032;-63
2023/12/19 01:45:00;;;;;;;40.03;14.57;;;;;;;;;;5017747;28;20048;-64
2023/12/19 01:47:25;;;;;;;33.77;12.67;;;;;;;;;;5007823;28;20509;-63
2023/12/19 01:49:51;;;;;;;38.97;13.53;;;;;;;;;;5015790;28;20022;-64
2023/12/19 01:52:16;;;;;;;37.33;13.80;;;;;;;;;;5016806;28;20035;-64
2023/12/19 01:54:41;;;;;;;43.10;13.57;;;;;;;;;;5019573;28;20105;-63
2023/12/19 01:57:06;;;;;;;37.57;13.53;;;;;;;;;;5013637;28;20084;-65
2023/12/19 01:59:32;;;;;;;38.47;14.27;;;;;;;;;;5017851;28;20022;-63
2023/12/19 02:01:57;;;;;;;41.83;15.17;;;;;;;;;;5021972;28;20059;-64
2023/12/19 02:04:22;;;;;;;34.37;12.67;;;;;;;;;;5019019;28;20030;-65
2023/12/19 02:06:48;;;;;;;42.40;14.97;;;;;;;;;;5014960;28;20018;-64
2023/12/19 02:09:13;;;;;;;43.67;15.13;;;;;;;;;;5012718;28;20342;-63
2023/12/19 02:11:38;;;;;;;40.83;14.27;;;;;;;;;;5021914;28;20022;-65
2023/12/19 02:14:03;;;;;;;46.03;15.57;;;;;;;;;;5016819;28;20021;-63
2023/12/19 02:16:29;;;;;;;43.03;15.93;;;;;;;;;;5021423;28;20238;-63
2023/12/19 02:19:01;;;;;;;46.50;16.27;;;;;;;;;;5014692;28;20021;-65
2023/12/19 02:21:26;;;;;;;43.20;15.27;;;;;;;;;;5019309;28;20032;-67
2023/12/19 02:23:52;;;;;;;51.63;17.63;;;;;;;;;;5019147;28;20037;-68
2023/12/19 02:26:17;;;;;;;47.17;16.53;;;;;;;;;;5018752;28;20351;-68
2023/12/19 02:28:42;;;;;;;54.90;18.30;;;;;;;;;;5019207;28;20029;-69
2023/12/19 02:31:07;;;;;;;48.53;16.67;;;;;;;;;;5016089;28;20010;-70
2023/12/19 02:33:33;;;;;;;41.40;15.87;;;;;;;;;;5012707;28;20580;-67
2023/12/19 02:35:58;;;;;;;54.17;18.17;;;;;;;;;;5011766;28;20505;-68
2023/12/19 02:38:23;;;;;;;45.90;16.57;;;;;;;;;;5013906;28;20025;-68
2023/12/19 02:40:49;;;;;;;47.83;16.80;;;;;;;;;;5018026;28;20108;-64
2023/12/19 02:43:14;;;;;;;56.20;17.90;;;;;;;;;;5016385;28;20057;-64
2023/12/19 02:48:08;;;;;;;49.30;16.00;;;;;;;;;;5019399;28;20768;-74
2023/12/19 02:50:33;;;;;;;47.70;15.37;;;;;;;;;;5021417;28;20029;-73
2023/12/19 02:52:59;;;;;;;37.83;14.40;;;;;;;;;;5021057;28;20195;-73
2023/12/19 02:55:24;;;;;;;44.03;14.60;;;;;;;;;;5048515;22;20405;-86
2023/12/19 02:57:49;;;;;;;38.43;14.13;;;;;;;;;;5022692;28;20014;-88
2023/12/19 03:00:15;;;;;;;40.63;15.67;;;;;;;;;;5067174;22;20599;-74
2023/12/19 03:02:42;;;;;;;38.27;14.33;;;;;;;;;;5055978;28;20024;-74
2023/12/19 03:05:07;;;;;;;43.83;15.47;;;;;;;;;;5058888;28;20031;-74
2023/12/19 03:07:33;;;;;;;37.87;14.60;;;;;;;;;;5055756;28;20028;-74
2023/12/19 03:09:58;;;;;;;43.83;15.10;;;;;;;;;;5053597;28;20048;-73
2023/12/19 03:12:23;;;;;;;47.80;16.00;;;;;;;;;;5056909;28;20107;-74
2023/12/19 03:14:48;;;;;;;47.30;17.00;;;;;;;;;;5058825;28;20232;-74
2023/12/19 03:17:14;;;;;;;47.17;17.37;;;;;;;;;;5054345;28;20384;-75
2023/12/19 03:19:39;;;;;;;45.10;18.50;;;;;;;;;;5054667;28;20037;-76
2023/12/19 03:22:05;;;;;;;49.97;17.07;;;;;;;;;;5058372;28;20537;-75
2023/12/19 03:24:30;;;;;;;49.90;17.70;;;;;;;;;;5055441;28;20031;-75
2023/12/19 03:26:55;;;;;;;49.13;15.77;;;;;;;;;;5055808;28;20467;-76
2023/12/19 03:29:20;;;;;;;48.10;16.73;;;;;;;;;;5058368;28;20021;-76
2023/12/19 03:31:46;;;;;;;46.53;16.77;;;;;;;;;;5055091;28;20468;-75
2023/12/19 03:34:11;;;;;;;39.10;14.73;;;;;;;;;;5054912;28;20028;-75
2023/12/19 03:36:36;;;;;;;44.13;15.03;;;;;;;;;;5059159;28;20036;-75
2023/12/19 03:39:01;;;;;;;45.10;16.67;;;;;;;;;;5053711;28;20071;-75
2023/12/19 03:41:27;;;;;;;45.67;15.20;;;;;;;;;;5054708;28;20455;-75
2023/12/19 03:43:52;;;;;;;42.30;15.23;;;;;;;;;;5056608;28;20059;-75
2023/12/19 03:46:17;;;;;;;40.20;14.00;;;;;;;;;;5055713;28;20406;-75
2023/12/19 03:48:45;;;;;;;35.37;14.10;;;;;;;;;;5054726;28;20016;-75
2023/12/19 03:51:13;;;;;;;39.40;13.67;;;;;;;;;;5056687;28;20025;-75
2023/12/19 03:53:39;;;;;;;37.47;13.73;;;;;;;;;;5051209;28;20033;-75
2023/12/19 03:56:05;;;;;;;44.43;13.67;;;;;;;;;;5055327;28;20032;-75
2023/12/19 03:58:30;;;;;;;34.60;12.80;;;;;;;;;;5058295;28;20457;-74
2023/12/19 04:00:55;;;;;;;32.33;11.63;;;;;;;;;;5054539;28;20055;-74
2023/12/19 04:03:20;;;;;;;35.77;12.53;;;;;;;;;;5060997;28;20032;-74
2023/12/19 04:05:46;;;;;;;34.00;12.03;;;;;;;;;;5059318;28;20016;-74
2023/12/19 04:08:11;;;;;;;36.03;13.07;;;;;;;;;;5060948;28;20021;-72
2023/12/19 04:10:36;;;;;;;32.03;12.40;;;;;;;;;;5058455;28;20017;-72
2023/12/19 04:13:02;;;;;;;33.23;12.27;;;;;;;;;;5057148;28;20028;-72
2023/12/19 04:15:27;;;;;;;32.40;11.40;;;;;;;;;;5054163;28;20032;-73
2023/12/19 04:17:52;;;;;;;32.50;12.80;;;;;;;;;;5059968;28;20027;-72
2023/12/19 04:20:18;;;;;;;30.83;12.27;;;;;;;;;;5055406;28;20059;-72
2023/12/19 04:22:43;;;;;;;31.10;12.43;;;;;;;;;;5057027;28;20029;-72
2023/12/19 04:25:08;;;;;;;32.67;12.27;;;;;;;;;;5055419;28;20332;-73
2023/12/19 04:27:33;;;;;;;35.80;12.93;;;;;;;;;;5057763;28;20101;-72
2023/12/19 04:29:59;;;;;;;32.73;12.90;;;;;;;;;;5057032;28;20032;-72
2023/12/19 04:32:24;;;;;;;29.00;13.00;;;;;;;;;;5051230;28;20025;-72
2023/12/19 04:34:49;;;;;;;30.27;11.57;;;;;;;;;;5057609;28;20023;-73
2023/12/19 04:37:14;;;;;;;23.57;10.77;;;;;;;;;;5054713;28;20035;-72
2023/12/19 04:39:40;;;;;;;24.90;10.73;;;;;;;;;;5056152;28;20029;-72
2023/12/19 04:42:08;;;;;;;21.33;9.80;;;;;;;;;;5053864;28;20028;-73
2023/12/19 04:44:34;;;;;;;23.37;9.63;;;;;;;;;;5056486;28;20103;-73
2023/12/19 04:46:59;;;;;;;20.07;9.10;;;;;;;;;;5050751;28;20017;-73
2023/12/19 04:49:24;;;;;;;19.43;8.20;;;;;;;;;;5057134;28;20092;-72
2023/12/19 04:51:51;;;;;;;17.67;7.73;;;;;;;;;;5050951;28;20025;-72
2023/12/19 04:54:16;;;;;;;20.93;8.23;;;;;;;;;;5057160;28;20025;-75
2023/12/19 04:56:42;;;;;;;20.33;8.57;;;;;;;;;;5051506;28;20068;-75
2023/12/19 04:59:07;;;;;;;20.07;8.70;;;;;;;;;;5055459;28;20358;-75
2023/12/19 05:01:33;;;;;;;22.00;9.37;;;;;;;;;;5056996;28;20476;-75
2023/12/19 05:03:58;;;;;;;20.17;8.53;;;;;;;;;;5056472;28;20017;-75
2023/12/19 05:06:23;;;;;;;20.97;9.37;;;;;;;;;;5057726;28;20066;-72
2023/12/19 05:08:49;;;;;;;19.23;7.77;;;;;;;;;;5052734;28;20499;-72
2023/12/19 05:11:14;;;;;;;20.93;8.60;;;;;;;;;;5052618;28;20267;-72
2023/12/19 05:13:40;;;;;;;21.80;8.40;;;;;;;;;;5055223;28;20021;-72
2023/12/19 05:16:09;;;;;;;18.63;8.47;;;;;;;;;;5058780;28;20093;-73
2023/12/19 05:18:36;;;;;;;23.33;9.37;;;;;;;;;;5057659;28;20024;-73
2023/12/19 05:21:02;;;;;;;24.10;8.80;;;;;;;;;;5056830;28;20020;-73
2023/12/19 05:23:27;;;;;;;21.30;8.97;;;;;;;;;;5055496;28;20553;-73
2023/12/19 05:25:52;;;;;;;20.50;8.53;;;;;;;;;;5059948;28;20036;-73
2023/12/19 05:28:17;;;;;;;21.33;10.27;;;;;;;;;;5060168;28;20017;-73
2023/12/19 05:30:43;;;;;;;20.23;8.80;;;;;;;;;;5069906;28;20049;-72
2023/12/19 05:33:09;;;;;;;23.87;8.73;;;;;;;;;;5065313;28;20027;-72
2023/12/19 05:35:34;;;;;;;22.07;8.53;;;;;;;;;;5057273;28;20028;-76
2023/12/19 05:38:01;;;;;;;21.60;9.23;;;;;;;;;;5061086;28;20017;-76
2023/12/19 05:40:26;;;;;;;17.60;7.27;;;;;;;;;;5062643;28;20024;-75
2023/12/19 05:42:56;;;;;;;21.40;8.93;;;;;;;;;;5057178;28;20024;-72
2023/12/19 05:45:21;;;;;;;18.50;8.30;;;;;;;;;;5058829;28;20013;-73
2023/12/19 05:47:46;;;;;;;19.93;7.67;;;;;;;;;;5059879;28;20375;-73
2023/12/19 05:50:11;;;;;;;20.73;8.27;;;;;;;;;;5058522;28;20077;-72
2023/12/19 05:52:37;;;;;;;22.00;8.33;;;;;;;;;;5056203;28;20035;-73
2023/12/19 05:55:02;;;;;;;17.37;7.53;;;;;;;;;;5057031;28;20077;-72
2023/12/19 05:57:27;;;;;;;22.30;7.83;;;;;;;;;;5064076;28;20032;-75
2023/12/19 05:59:52;;;;;;;18.23;7.13;;;;;;;;;;5058756;28;20044;-74
2023/12/19 06:02:20;;;;;;;15.40;7.10;;;;;;;;;;5059274;28;20510;-74
2023/12/19 06:04:45;;;;;;;16.90;7.00;;;;;;;;;;5059624;28;20040;-75
2023/12/19 06:07:10;;;;;;;17.80;7.00;;;;;;;;;;5062015;28;20690;-75
2023/12/19 06:09:35;;;;;;;17.07;7.63;;;;;;;;;;5060215;28;20024;-75
2023/12/19 06:12:01;;;;;;;18.43;6.83;;;;;;;;;;5059222;28;20027;-74
2023/12/19 06:14:26;;;;;;;15.87;6.77;;;;;;;;;;5058860;28;20053;-75
2023/12/19 06:16:51;;;;;;;15.63;6.57;;;;;;;;;;5064243;28;20036;-74
2023/12/19 06:19:17;;;;;;;17.00;7.07;;;;;;;;;;5060342;28;20078;-74
2023/12/19 06:21:42;;;;;;;16.43;6.23;;;;;;;;;;5060507;28;20433;-74
2023/12/19 06:24:08;;;;;;;13.13;6.10;;;;;;;;;;5057481;28;20074;-74
2023/12/19 06:26:33;;;;;;;17.30;6.93;;;;;;;;;;5055898;28;20059;-73
2023/12/19 06:29:00;;;;;;;15.17;6.07;;;;;;;;;;5058896;28;20048;-74
2023/12/19 06:31:25;;;;;;;16.60;6.90;;;;;;;;;;5058991;28;20020;-74
2023/12/19 06:33:50;;;;;;;15.00;6.17;;;;;;;;;;5053809;28;20013;-74
2023/12/19 06:36:31;;;;;;;17.97;7.10;;;;;;;;;;5054773;28;20388;-74
2023/12/19 06:38:56;;;;;;;16.23;7.10;;;;;;;;;;5051526;28;20021;-75
2023/12/19 06:41:22;;;;;;;18.03;6.93;;;;;;;;;;5060318;28;20016;-77
2023/12/19 06:43:47;;;;;;;21.03;6.67;;;;;;;;;;5052863;28;20048;-74
2023/12/19 06:46:16;;;;;;;14.10;5.93;;;;;;;;;;5057034;28;20009;-75
2023/12/19 06:48:42;;;;;;;15.67;5.87;;;;;;;;;;5056198;28;20024;-74
2023/12/19 06:51:07;;;;;;;12.70;5.50;;;;;;;;;;5051134;28;20416;-74
2023/12/19 06:53:33;;;;;;;15.20;6.13;;;;;;;;;;5053047;28;20047;-74
2023/12/19 06:55:58;;;;;;;13.33;5.33;;;;;;;;;;5056249;28;20130;-74
2023/12/19 06:58:23;;;;;;;13.63;5.13;;;;;;;;;;5057399;28;20036;-74
2023/12/19 07:00:48;;;;;;;15.67;5.93;;;;;;;;;;5051687;28;20252;-75
2023/12/19 07:03:14;;;;;;;13.13;5.30;;;;;;;;;;5052258;28;20024;-74
2023/12/19 07:05:39;;;;;;;13.37;6.20;;;;;;;;;;5058138;28;20013;-74
2023/12/19 07:08:05;;;;;;;13.57;6.40;;;;;;;;;;5061036;28;20461;-74
2023/12/19 07:10:31;;;;;;;14.27;6.50;;;;;;;;;;5056870;28;20404;-75
2023/12/19 07:12:56;;;;;;;13.83;6.70;;;;;;;;;;5054574;28;20021;-74
2023/12/19 07:15:21;;;;;;;13.50;6.03;;;;;;;;;;5057160;28;20016;-74
2023/12/19 07:17:47;;;;;;;15.13;6.83;;;;;;;;;;5055393;28;20062;-74
2023/12/19 07:20:12;;;;;;;12.87;5.97;;;;;;;;;;5055464;28;20473;-75
2023/12/19 07:22:37;;;;;;;13.10;4.97;;;;;;;;;;5059590;28;20111;-72
2023/12/19 07:25:03;;;;;;;12.63;6.10;;;;;;;;;;5058961;28;20435;-72
2023/12/19 07:27:29;;;;;;;13.13;5.93;;;;;;;;;;5058695;28;20097;-73
2023/12/19 07:29:54;;;;;;;14.37;5.67;;;;;;;;;;5056043;28;20024;-73
2023/12/19 07:32:20;;;;;;;12.17;5.37;;;;;;;;;;5057831;28;20024;-72
2023/12/19 07:34:46;;;;;;;13.07;5.90;;;;;;;;;;5058509;28;20028;-72
2023/12/19 07:37:11;;;;;;;11.77;5.13;;;;;;;;;;5055664;28;20090;-72
2023/12/19 07:39:36;;;;;;;11.70;5.07;;;;;;;;;;5060870;28;20051;-74
2023/12/19 07:42:02;;;;;;;12.43;5.87;;;;;;;;;;5052932;28;20021;-74
2023/12/19 07:44:27;;;;;;;11.80;5.73;;;;;;;;;;5054788;28;20103;-75
2023/12/19 07:46:52;;;;;;;12.57;5.60;;;;;;;;;;5052515;28;20013;-78
2023/12/19 07:49:17;;;;;;;11.83;5.63;;;;;;;;;;5052303;28;20017;-75
2023/12/19 07:51:43;;;;;;;12.47;5.37;;;;;;;;;;5057299;28;20100;-75
2023/12/19 07:54:08;;;;;;;11.70;5.33;;;;;;;;;;5052867;28;20012;-79
2023/12/19 07:56:33;;;;;;;11.87;5.40;;;;;;;;;;5058368;28;20154;-76
2023/12/19 07:58:59;;;;;;;12.37;5.87;;;;;;;;;;5049384;28;20401;-76
2023/12/19 08:01:25;;;;;;;11.43;5.23;;;;;;;;;;5048808;28;20138;-76
2023/12/19 08:03:50;;;;;;;10.57;5.63;;;;;;;;;;5056862;28;20020;-75
2023/12/19 08:06:16;;;;;;;9.67;4.70;;;;;;;;;;5051171;28;20028;-76
2023/12/19 08:08:42;;;;;;;10.80;5.20;;;;;;;;;;5054713;28;20259;-75
2023/12/19 08:11:07;;;;;;;10.53;5.30;;;;;;;;;;5050729;28;20024;-75
2023/12/19 08:13:34;;;;;;;11.10;5.17;;;;;;;;;;5056705;28;20028;-75
2023/12/19 08:15:59;;;;;;;9.77;4.70;;;;;;;;;;5057668;28;20016;-75
2023/12/19 08:18:24;;;;;;;10.27;4.63;;;;;;;;;;5055439;28;20028;-75
2023/12/19 08:20:50;;;;;;;10.27;4.47;;;;;;;;;;5053865;28;20028;-75
2023/12/19 08:23:15;;;;;;;10.83;4.73;;;;;;;;;;5055228;28;20517;-75
2023/12/19 08:25:41;;;;;;;10.40;4.47;;;;;;;;;;5056535;28;20063;-75
2023/12/19 08:28:10;;;;;;;8.87;4.30;;;;;;;;;;5056699;28;20009;-75
2023/12/19 08:30:35;;;;;;;8.97;3.80;;;;;;;;;;5056074;28;20067;-75
2023/12/19 08:33:02;;;;;;;10.80;4.30;;;;;;;;;;5055963;28;20041;-74
2023/12/19 08:35:27;;;;;;;10.30;4.20;;;;;;;;;;5052930;28;20021;-75
2023/12/19 08:37:52;;;;;;;9.17;4.17;;;;;;;;;;5054520;28;20689;-75
2023/12/19 08:40:18;;;;;;;7.13;3.77;;;;;;;;;;5053445;28;20483;-75
2023/12/19 08:42:43;;;;;;;8.27;3.80;;;;;;;;;;5053459;28;20028;-75
2023/12/19 08:45:18;;;;;;;8.83;3.80;;;;;;;;;;5055022;28;20013;-74
2023/12/19 08:47:44;;;;;;;8.10;3.90;;;;;;;;;;5050891;28;20024;-74
2023/12/19 08:50:11;;;;;;;7.60;3.37;;;;;;;;;;5050180;28;20493;-73
2023/12/19 08:52:37;;;;;;;7.73;3.80;;;;;;;;;;5053769;28;20375;-72
2023/12/19 08:55:04;;;;;;;7.57;3.67;;;;;;;;;;5054683;28;20013;-72
2023/12/19 08:57:30;;;;;;;6.40;3.23;;;;;;;;;;5050399;28;20043;-73
2023/12/19 08:59:55;;;;;;;6.40;3.33;;;;;;;;;;5047751;28;20037;-73
2023/12/19 09:02:20;;;;;;;8.73;3.90;;;;;;;;;;5054252;28;20074;-73
2023/12/19 09:04:45;;;;;;;7.87;3.33;;;;;;;;;;5057503;28;20403;-73
2023/12/19 09:07:11;;;;;;;5.57;2.77;;;;;;;;;;5054669;28;20128;-73
2023/12/19 09:09:36;;;;;;;8.27;3.50;;;;;;;;;;5047020;28;20277;-72
2023/12/19 09:12:02;;;;;;;7.00;3.33;;;;;;;;;;5055942;28;20020;-73
2023/12/19 09:14:28;;;;;;;6.83;3.27;;;;;;;;;;5058946;28;20112;-71
2023/12/19 09:16:54;;;;;;;6.57;3.07;;;;;;;;;;5055165;28;20104;-74
2023/12/19 09:19:19;;;;;;;6.80;3.20;;;;;;;;;;5055935;28;20017;-73
2023/12/19 09:21:44;;;;;;;6.50;3.00;;;;;;;;;;5051508;28;20178;-74
2023/12/19 09:24:09;;;;;;;6.60;3.03;;;;;;;;;;5052141;28;20104;-73
2023/12/19 09:26:38;;;;;;;5.77;2.67;;;;;;;;;;5058120;28;20028;-73
2023/12/19 09:29:04;;;;;;;7.37;3.40;;;;;;;;;;5052767;28;20090;-73
2023/12/19 09:31:30;;;;;;;5.73;3.03;;;;;;;;;;5056182;28;20339;-73
2023/12/19 09:33:55;;;;;;;7.37;3.67;;;;;;;;;;5053951;28;20021;-72
2023/12/19 09:36:21;;;;;;;8.30;3.80;;;;;;;;;;5055727;28;20075;-75
2023/12/19 09:38:47;;;;;;;8.03;3.73;;;;;;;;;;5055457;28;20439;-73
2023/12/19 09:41:12;;;;;;;6.80;3.40;;;;;;;;;;5051483;28;20059;-73
2023/12/19 09:43:38;;;;;;;7.77;3.70;;;;;;;;;;5053955;28;20089;-73
2023/12/19 09:46:03;;;;;;;6.40;3.07;;;;;;;;;;5053412;28;20377;-73
2023/12/19 09:48:36;;;;;;;7.70;3.40;;;;;;;;;;5069869;28;20013;-73
2023/12/19 09:51:02;;;;;;;9.03;3.70;;;;;;;;;;5052078;28;20473;-73
2023/12/19 09:53:30;;;;;;;8.73;4.27;;;;;;;;;;5053719;28;20032;-73
2023/12/19 09:55:55;;;;;;;8.57;3.87;;;;;;;;;;5051974;28;20131;-73
2023/12/19 09:58:22;;;;;;;8.57;3.97;;;;;;;;;;5052883;28;20525;-73
2023/12/19 10:00:47;;;;;;;7.53;3.73;;;;;;;;;;5049487;28;20074;-74
2023/12/19 10:03:12;;;;;;;8.07;4.03;;;;;;;;;;5052258;28;20043;-76
2023/12/19 10:05:38;;;;;;;9.77;4.10;;;;;;;;;;5051011;28;20020;-75
2023/12/19 10:08:03;;;;;;;10.17;4.80;;;;;;;;;;5050413;28;20071;-75
2023/12/19 10:10:47;;;;;;;11.20;5.03;;;;;;;;;;5059313;28;20030;-74
2023/12/19 10:13:24;;;;;;;9.53;4.53;;;;;;;;;;5055640;28;20374;-75
2023/12/19 10:15:58;;;;;;;8.97;4.27;;;;;;;;;;5053661;28;20028;-76
2023/12/19 10:18:23;;;;;;;11.80;4.40;;;;;;;;;;5051777;28;20489;-75
2023/12/19 10:20:48;;;;;;;11.80;5.20;;;;;;;;;;5059240;28;20036;-75
2023/12/19 10:23:19;;;;;;;11.30;4.80;;;;;;;;;;5055791;28;20658;-75
2023/12/19 10:25:51;;;;;;;9.82;4.10;;;;;;;;;;5057611;28;20009;-75
2023/12/19 10:28:16;;;;;;;9.95;4.43;;;;;;;;;;5051711;28;20384;-75
2023/12/19 10:30:42;;;;;;;8.67;4.30;;;;;;;;;;5054853;28;20013;-75
2023/12/19 10:33:08;;;;;;;10.60;4.63;;;;;;;;;;5053268;28;20231;-75
2023/12/19 10:35:37;;;;;;;8.93;4.13;;;;;;;;;;5058907;28;20048;-75
2023/12/19 10:38:02;;;;;;;11.10;4.87;;;;;;;;;;5059193;28;20030;-75
2023/12/19 10:40:27;;;;;;;11.40;4.53;;;;;;;;;;5054121;28;20099;-75
2023/12/19 10:42:56;;;;;;;12.37;5.33;;;;;;;;;;5054489;28;20417;-76
2023/12/19 10:45:21;;;;;;;12.27;5.50;;;;;;;;;;5056518;28;20309;-75
2023/12/19 10:47:47;;;;;;;11.90;5.57;;;;;;;;;;5056558;28;20147;-75
2023/12/19 10:50:12;;;;;;;11.37;5.57;;;;;;;;;;5061641;28;20031;-75
2023/12/19 10:52:40;;;;;;;15.20;6.00;;;;;;;;;;5055172;28;20055;-75
2023/12/19 10:55:08;;;;;;;13.97;6.30;;;;;;;;;;5053461;28;20016;-75
2023/12/19 10:57:36;;;;;;;14.83;6.10;;;;;;;;;;5056447;28;20085;-74
2023/12/19 11:00:09;;;;;;;14.93;6.47;;;;;;;;;;5054376;28;20050;-75
2023/12/19 11:02:35;;;;;;;14.20;6.43;;;;;;;;;;5055795;28;20027;-75
2023/12/19 11:05:04;;;;;;;17.47;6.67;;;;;;;;;;5053515;28;20024;-75
2023/12/19 11:07:32;;;;;;;15.47;6.77;;;;;;;;;;5056472;28;20625;-75
2023/12/19 11:10:02;;;;;;;16.43;7.30;;;;;;;;;;5052179;28;20397;-75
2023/12/19 11:12:28;;;;;;;17.27;6.70;;;;;;;;;;5057922;28;20230;-73
2023/12/19 11:14:53;;;;;;;16.97;7.20;;;;;;;;;;5054369;28;20108;-74
2023/12/19 11:17:39;;;;;;;18.17;7.87;;;;;;;;;;5057314;28;20029;-73
2023/12/19 11:20:09;;;;;;;16.13;6.47;;;;;;;;;;5023183;28;20043;-73
2023/12/19 11:22:34;;;;;;;17.20;7.27;;;;;;;;;;5056832;28;20431;-73
2023/12/19 11:25:07;;;;;;;19.83;8.40;;;;;;;;;;5057927;28;20020;-74
2023/12/19 11:27:35;;;;;;;17.57;7.70;;;;;;;;;;5053147;28;20389;-72
2023/12/19 11:30:00;;;;;;;16.57;7.10;;;;;;;;;;5060476;28;20032;-73
2023/12/19 11:32:28;;;;;;;19.67;8.00;;;;;;;;;;5055027;28;20385;-73
2023/12/19 11:34:54;;;;;;;20.53;7.83;;;;;;;;;;5059459;28;20023;-73
2023/12/19 11:37:22;;;;;;;19.47;8.37;;;;;;;;;;5055733;28;20021;-73
2023/12/19 11:39:48;;;;;;;21.17;9.33;;;;;;;;;;5055915;28;20027;-73
2023/12/19 11:42:32;;;;;;;20.27;7.97;;;;;;;;;;5056756;28;20021;-73
2023/12/19 11:44:57;;;;;;;20.00;8.20;;;;;;;;;;5057941;28;20389;-72
2023/12/19 11:47:28;;;;;;;19.50;8.50;;;;;;;;;;5059303;28;20036;-74
2023/12/19 11:49:54;;;;;;;18.35;7.53;;;;;;;;;;5053565;28;20017;-74
2023/12/19 11:52:32;;;;;;;19.73;8.87;;;;;;;;;;5057611;28;20029;-72
2023/12/19 11:54:57;;;;;;;19.57;8.47;;;;;;;;;;5054996;28;20032;-73
2023/12/19 11:57:22;;;;;;;18.37;7.50;;;;;;;;;;5051406;28;20536;-73
2023/12/19 11:59:49;;;;;;;18.67;8.23;;;;;;;;;;5067309;28;20052;-73
2023/12/19 12:02:27;;;;;;;18.90;7.80;;;;;;;;;;5050850;28;20116;-74
2023/12/19 12:05:17;;;;;;;19.47;8.47;;;;;;;;;;5051190;28;20039;-73
2023/12/19 12:07:42;;;;;;;19.90;8.20;;;;;;;;;;5051225;28;20029;-73
2023/12/19 12:10:09;;;;;;;18.27;6.90;;;;;;;;;;5052370;28;20111;-73
2023/12/19 12:12:35;;;;;;;16.70;7.40;;;;;;;;;;5053894;28;20051;-74
2023/12/19 12:15:11;;;;;;;18.23;7.23;;;;;;;;;;5049318;28;20598;-73
2023/12/19 12:17:36;;;;;;;18.20;7.77;;;;;;;;;;5056593;28;20261;-73
2023/12/19 12:20:03;;;;;;;19.03;7.70;;;;;;;;;;5056187;28;20153;-75
2023/12/19 12:22:28;;;;;;;16.87;7.33;;;;;;;;;;5053725;28;20028;-75
2023/12/19 12:24:54;;;;;;;13.80;6.40;;;;;;;;;;5050558;28;20491;-75
2023/12/19 12:27:19;;;;;;;13.63;6.40;;;;;;;;;;5057472;28;20368;-76
2023/12/19 12:29:44;;;;;;;15.23;6.37;;;;;;;;;;5059953;28;20009;-77
2023/12/19 12:32:10;;;;;;;16.30;6.93;;;;;;;;;;5058519;28;20657;-75
2023/12/19 12:34:36;;;;;;;15.90;6.97;;;;;;;;;;5055930;28;20060;-75
2023/12/19 12:37:01;;;;;;;16.33;7.30;;;;;;;;;;5050916;28;20313;-75
2023/12/19 12:39:26;;;;;;;17.10;7.00;;;;;;;;;;5056232;28;20384;-75
2023/12/19 12:41:59;;;;;;;17.93;7.13;;;;;;;;;;5055028;28;20103;-76
2023/12/19 12:44:25;;;;;;;18.10;7.50;;;;;;;;;;5059027;28;20100;-77
2023/12/19 12:46:51;;;;;;;14.40;7.40;;;;;;;;;;5053079;28;20702;-76
2023/12/19 12:49:19;;;;;;;15.03;7.17;;;;;;;;;;5056708;28;20009;-76
2023/12/19 12:51:45;;;;;;;14.80;7.13;;;;;;;;;;5052331;28;20396;-75
2023/12/19 12:54:10;;;;;;;14.03;6.77;;;;;;;;;;5053754;28;20012;-75
2023/12/19 12:56:39;;;;;;;15.00;6.43;;;;;;;;;;5057502;28;20339;-75
2023/12/19 12:59:08;;;;;;;15.80;6.90;;;;;;;;;;5051692;28;20047;-75
2023/12/19 13:01:38;;;;;;;16.23;6.60;;;;;;;;;;5054968;28;20044;-75
2023/12/19 13:04:03;;;;;;;14.03;5.80;;;;;;;;;;5051509;28;20025;-75
2023/12/19 13:06:29;;;;;;;12.07;5.60;;;;;;;;;;5058839;28;20108;-75
2023/12/19 13:08:54;;;;;;;12.80;6.40;;;;;;;;;;5054164;28;20024;-75
2023/12/19 13:11:20;;;;;;;12.70;5.93;;;;;;;;;;5049011;28;20079;-75
2023/12/19 13:13:45;;;;;;;14.23;6.13;;;;;;;;;;5051323;28;20055;-75
2023/12/19 13:16:11;;;;;;;13.47;6.37;;;;;;;;;;5054422;28;20464;-75
2023/12/19 13:18:36;;;;;;;12.57;5.97;;;;;;;;;;5051406;28;20032;-75
2023/12/19 13:21:02;;;;;;;11.83;5.57;;;;;;;;;;5063782;28;20568;-75
2023/12/19 13:23:28;;;;;;;11.70;5.73;;;;;;;;;;5054530;28;20025;-75
2023/12/19 13:25:54;;;;;;;11.67;5.83;;;;;;;;;;5056078;28;20068;-75
2023/12/19 13:28:19;;;;;;;11.77;5.63;;;;;;;;;;5056568;28;20021;-75
2023/12/19 13:30:44;;;;;;;12.30;6.03;;;;;;;;;;5054553;28;20021;-75
2023/12/19 13:33:10;;;;;;;12.53;5.80;;;;;;;;;;5048942;28;20021;-75
2023/12/19 13:35:36;;;;;;;12.03;5.80;;;;;;;;;;5057880;28;20078;-75
2023/12/19 13:38:01;;;;;;;13.87;6.07;;;;;;;;;;5057590;28;20016;-75
2023/12/19 13:40:29;;;;;;;12.53;5.97;;;;;;;;;;5056055;28;20024;-76
2023/12/19 13:42:55;;;;;;;13.47;6.67;;;;;;;;;;5057009;28;20079;-75
2023/12/19 13:45:20;;;;;;;11.73;5.67;;;;;;;;;;5050028;28;20013;-75
2023/12/19 13:47:46;;;;;;;12.37;5.67;;;;;;;;;;5064582;28;20423;-75
2023/12/19 13:50:12;;;;;;;11.07;5.60;;;;;;;;;;5051940;28;20416;-76
2023/12/19 13:52:38;;;;;;;12.73;5.60;;;;;;;;;;5059705;28;20392;-75
2023/12/19 13:55:06;;;;;;;12.27;5.67;;;;;;;;;;5054293;28;20021;-76
2023/12/19 13:57:31;;;;;;;12.47;6.10;;;;;;;;;;5056527;28;20363;-76
2023/12/19 13:59:56;;;;;;;14.27;6.30;;;;;;;;;;5058223;28;20114;-75
2023/12/19 14:02:23;;;;;;;13.90;6.80;;;;;;;;;;5056232;28;20324;-75
2023/12/19 14:04:48;;;;;;;13.60;6.27;;;;;;;;;;5055973;28;20526;-77
2023/12/19 14:07:15;;;;;;;13.17;6.20;;;;;;;;;;5058524;28;20017;-75
2023/12/19 14:09:41;;;;;;;12.00;6.63;;;;;;;;;;5056229;28;20030;-75
2023/12/19 14:12:06;;;;;;;13.20;6.00;;;;;;;;;;5058255;28;20449;-75
2023/12/19 14:14:32;;;;;;;11.53;5.53;;;;;;;;;;5054042;28;20043;-75
2023/12/19 14:16:57;;;;;;;15.67;7.60;;;;;;;;;;5056406;28;20083;-75
2023/12/19 14:19:22;;;;;;;13.57;6.50;;;;;;;;;;5056169;28;20428;-75
2023/12/19 14:21:50;;;;;;;10.83;5.73;;;;;;;;;;5053144;28;20008;-76
2023/12/19 14:24:16;;;;;;;10.93;6.07;;;;;;;;;;5059486;28;20571;-75